Time;durP1;ratioP1;P1;durP2;ratioP2;P2;SDS_P1;SDS_P2;PMS_P1;PMS_P2;Temp;Humidity;BMP_temperature;BMP_pressure;BME280_temperature;BME280_humidity;BME280_pressure;Samples;Min_cycle;Max_cycle;Signal;HPM_P1;HPM_P2
2022/04/04 00:02:10;;;;;;;10.13;6.37;;;;;;;1.07;81.29;101905.06;5026167;28;20037;-54
2022/04/04 00:04:35;;;;;;;12.27;7.00;;;;;;;1.07;81.24;101907.66;5024783;28;20029;-55
2022/04/04 00:07:02;;;;;;;10.73;6.60;;;;;;;1.09;81.27;101901.41;5016533;28;20029;-56
2022/04/04 00:09:28;;;;;;;11.53;6.73;;;;;;;1.12;81.09;101898.63;5024552;28;20044;-56
2022/04/04 00:11:53;;;;;;;9.73;6.73;;;;;;;1.12;81.15;101893.41;5015854;28;20194;-54
2022/04/04 00:14:19;;;;;;;10.53;6.37;;;;;;;1.11;81.15;101890.88;5021869;28;20033;-52
2022/04/04 00:16:45;;;;;;;10.03;6.70;;;;;;;1.08;81.10;101884.03;5017576;28;20037;-54
2022/04/04 00:19:11;;;;;;;9.60;6.57;;;;;;;1.07;81.18;101881.50;5024133;28;20021;-55
2022/04/04 00:21:37;;;;;;;10.40;6.60;;;;;;;1.07;81.07;101868.44;5018336;28;20025;-53
2022/04/04 00:24:03;;;;;;;12.27;7.40;;;;;;;1.07;81.05;101877.13;5023934;28;20037;-55
2022/04/04 00:26:28;;;;;;;11.10;6.90;;;;;;;1.07;81.04;101871.03;5022016;28;20465;-54
2022/04/04 00:28:53;;;;;;;9.53;6.43;;;;;;;1.06;81.00;101866.75;5014476;28;20144;-53
2022/04/04 00:31:19;;;;;;;8.90;6.60;;;;;;;1.07;80.73;101863.19;5020017;28;20549;-54
2022/04/04 00:33:44;;;;;;;11.33;6.97;;;;;;;1.11;81.09;101862.09;5024475;28;20056;-55
2022/04/04 00:36:10;;;;;;;12.83;7.87;;;;;;;1.13;80.87;101852.38;5024240;28;20037;-56
2022/04/04 00:38:35;;;;;;;11.00;7.60;;;;;;;1.17;81.07;101857.41;5015029;28;20030;-54
2022/04/04 00:41:07;;;;;;;12.63;7.70;;;;;;;1.19;80.93;101846.84;5022962;28;20061;-55
2022/04/04 00:43:33;;;;;;;11.00;7.93;;;;;;;1.20;80.77;101844.13;5027756;28;20032;-55
2022/04/04 00:45:59;;;;;;;13.33;8.20;;;;;;;1.20;80.62;101843.28;5019171;28;20572;-54
2022/04/04 00:48:35;;;;;;;14.13;8.37;;;;;;;1.17;80.59;101836.47;5019089;28;20030;-55
2022/04/04 00:51:04;;;;;;;13.20;9.40;;;;;;;1.12;80.52;101838.47;5014484;28;20505;-53
2022/04/04 00:53:31;;;;;;;14.33;9.73;;;;;;;1.08;80.53;101829.09;5018746;28;20076;-56
2022/04/04 00:55:56;;;;;;;15.03;9.50;;;;;;;1.07;80.65;101829.19;5017492;28;20416;-55
2022/04/04 00:58:22;;;;;;;12.97;9.77;;;;;;;1.03;80.71;101828.53;5009384;28;20025;-53
2022/04/04 01:00:49;;;;;;;15.03;10.67;;;;;;;1.02;80.55;101829.47;5022802;28;20076;-53
2022/04/04 01:03:17;;;;;;;16.37;10.57;;;;;;;1.04;80.63;101818.91;5021990;28;20105;-51
2022/04/04 01:05:44;;;;;;;13.23;10.57;;;;;;;1.03;80.60;101812.00;5021649;28;20076;-54
2022/04/04 01:08:14;;;;;;;16.67;10.80;;;;;;;1.03;80.62;101809.38;5016855;28;20022;-55
2022/04/04 01:10:40;;;;;;;17.13;11.10;;;;;;;0.98;80.59;101812.25;5020858;28;20029;-54
2022/04/04 01:13:06;;;;;;;16.87;11.83;;;;;;;0.96;80.50;101803.66;5023124;28;20056;-54
2022/04/04 01:15:32;;;;;;;15.77;11.50;;;;;;;0.85;80.65;101788.53;5018640;28;20061;-54
2022/04/04 01:17:59;;;;;;;14.47;10.93;;;;;;;0.92;80.57;101800.38;5016650;28;20049;-56
2022/04/04 01:20:25;;;;;;;15.07;11.27;;;;;;;0.87;80.69;101793.72;5023503;28;20025;-54
2022/04/04 01:22:50;;;;;;;18.67;12.33;;;;;;;0.86;80.71;101792.00;5012051;28;20116;-54
2022/04/04 01:25:22;;;;;;;17.50;11.70;;;;;;;0.85;80.74;101780.69;5015951;28;20059;-55
2022/04/04 01:27:48;;;;;;;17.90;12.37;;;;;;;0.85;80.83;101782.47;5017041;28;20072;-53
2022/04/04 01:30:13;;;;;;;15.73;11.70;;;;;;;0.84;80.84;101775.53;5022100;28;20030;-55
2022/04/04 01:32:38;;;;;;;19.03;11.30;;;;;;;0.83;80.94;101771.25;5020242;28;20080;-57
2022/04/04 01:35:05;;;;;;;17.07;12.23;;;;;;;0.82;80.88;101767.78;5018376;28;20046;-55
2022/04/04 01:37:30;;;;;;;17.93;11.97;;;;;;;0.80;80.80;101755.72;5020707;28;20029;-55
2022/04/04 01:39:56;;;;;;;15.73;11.80;;;;;;;0.80;80.62;101750.50;5014095;28;20079;-55
2022/04/04 01:42:21;;;;;;;14.30;11.50;;;;;;;0.79;80.69;101736.59;5011696;28;20683;-55
2022/04/04 01:45:04;;;;;;;17.77;11.93;;;;;;;0.79;80.64;101738.34;5021341;28;20029;-55
2022/04/04 01:47:30;;;;;;;17.43;11.83;;;;;;;0.76;80.50;101728.91;5023163;28;20033;-54
2022/04/04 01:49:55;;;;;;;20.50;11.50;;;;;;;0.76;80.53;101731.53;5019022;28;20515;-54
2022/04/04 01:52:20;;;;;;;17.67;12.10;;;;;;;0.77;80.56;101727.16;5020554;28;20025;-54
2022/04/04 01:54:45;;;;;;;16.27;11.37;;;;;;;0.75;80.30;101715.94;5016211;28;20033;-55
2022/04/04 01:57:11;;;;;;;16.30;12.60;;;;;;;0.76;80.28;101720.22;5020670;28;20028;-56
2022/04/04 01:59:36;;;;;;;14.20;11.37;;;;;;;0.78;80.25;101721.00;5023437;28;20034;-56
2022/04/04 02:02:01;;;;;;;17.03;11.40;;;;;;;0.78;80.17;101714.00;5018468;28;20037;-54
2022/04/04 02:04:27;;;;;;;16.00;11.10;;;;;;;0.85;80.04;101709.25;5010742;28;20037;-52
2022/04/04 02:06:52;;;;;;;18.90;11.13;;;;;;;0.84;79.77;101703.19;5016175;28;20036;-55
2022/04/04 02:09:18;;;;;;;18.33;11.63;;;;;;;0.85;79.75;101699.63;5012831;28;20045;-52
2022/04/04 02:11:44;;;;;;;17.20;11.30;;;;;;;0.84;79.73;101695.34;5016295;28;20510;-55
2022/04/04 02:14:09;;;;;;;19.97;11.50;;;;;;;0.85;79.45;101690.94;5015313;28;20389;-55
2022/04/04 02:16:34;;;;;;;18.43;11.53;;;;;;;0.86;79.53;101701.31;5014453;28;20509;-55
2022/04/04 02:19:00;;;;;;;17.07;11.43;;;;;;;0.88;79.65;101686.41;5018826;28;20057;-56
2022/04/04 02:21:26;;;;;;;19.13;11.73;;;;;;;0.89;79.45;101676.81;5018628;28;20025;-55
2022/04/04 02:23:52;;;;;;;16.90;10.67;;;;;;;0.89;79.66;101684.66;5020479;28;20029;-55
2022/04/04 02:26:18;;;;;;;16.97;11.50;;;;;;;0.90;79.30;101673.25;5016352;28;20481;-55
2022/04/04 02:28:43;;;;;;;13.73;10.47;;;;;;;0.91;79.23;101667.09;5016170;28;20036;-55
2022/04/04 02:31:08;;;;;;;17.87;11.20;;;;;;;0.93;79.12;101668.69;5014941;28;20304;-55
2022/04/04 02:33:34;;;;;;;16.40;11.10;;;;;;;0.95;79.13;101657.28;5024131;28;20053;-52
2022/04/04 02:35:59;;;;;;;15.67;10.50;;;;;;;0.96;79.08;101653.75;5016077;28;20036;-54
2022/04/04 02:38:26;;;;;;;16.10;10.60;;;;;;;0.97;79.07;101652.81;5016568;28;20033;-53
2022/04/04 02:40:53;;;;;;;17.87;9.97;;;;;;;0.98;79.15;101633.56;5024564;28;20053;-55
2022/04/04 02:43:19;;;;;;;15.07;10.90;;;;;;;1.00;79.04;101648.25;5016365;28;20025;-53
2022/04/04 02:45:45;;;;;;;16.20;10.30;;;;;;;1.03;79.12;101626.28;5023390;28;20037;-54
2022/04/04 02:48:10;;;;;;;16.43;10.53;;;;;;;1.07;78.94;101622.56;5018674;28;20073;-55
2022/04/04 02:50:36;;;;;;;14.37;10.07;;;;;;;1.16;78.70;101619.44;5016383;28;20025;-54
2022/04/04 02:53:02;;;;;;;13.83;9.43;;;;;;;1.22;78.64;101605.97;5026628;28;20056;-54
2022/04/04 02:58:11;;;;;;;15.00;9.30;;;;;;;1.34;78.37;101599.16;5019531;28;20069;-54
2022/04/04 03:00:36;;;;;;;13.17;9.67;;;;;;;1.40;78.04;101601.41;5018744;28;20481;-55
2022/04/04 03:03:03;;;;;;;15.43;9.53;;;;;;;1.41;78.35;101590.84;5018484;28;20022;-56
2022/04/04 03:05:28;;;;;;;15.40;9.80;;;;;;;1.43;78.27;101573.25;5023200;28;20037;-55
2022/04/04 03:07:54;;;;;;;13.60;9.77;;;;;;;1.49;78.23;101575.53;5023435;28;20113;-56
2022/04/04 03:10:19;;;;;;;13.87;9.53;;;;;;;1.50;78.17;101564.13;5022392;28;20029;-53
2022/04/04 03:12:50;;;;;;;15.23;9.77;;;;;;;1.49;78.20;101574.69;5024030;28;20049;-56
2022/04/04 03:15:19;;;;;;;15.70;9.90;;;;;;;1.50;78.23;101560.66;5025012;28;20519;-56
2022/04/04 03:17:47;;;;;;;17.30;10.45;;;;;;;1.52;78.31;101558.78;5016694;28;20409;-54
2022/04/04 03:20:14;;;;;;;15.17;9.30;;;;;;;1.50;78.34;101558.88;5023944;28;20507;-55
2022/04/04 03:22:42;;;;;;;14.17;9.87;;;;;;;1.51;78.43;101555.34;5021279;28;20037;-54
2022/04/04 03:25:09;;;;;;;12.17;8.77;;;;;;;1.55;78.49;101550.75;5024238;28;20056;-54
2022/04/04 03:27:36;;;;;;;12.63;9.60;;;;;;;1.60;78.48;101553.06;5023059;28;20079;-54
2022/04/04 03:30:02;;;;;;;13.53;9.23;;;;;;;1.69;78.19;101542.03;5027453;28;20025;-55
2022/04/04 03:32:28;;;;;;;13.17;9.40;;;;;;;1.74;78.37;101534.75;5023943;28;20684;-54
2022/04/04 03:34:53;;;;;;;13.83;9.30;;;;;;;1.72;78.28;101526.94;5018371;28;20102;-55
2022/04/04 03:37:19;;;;;;;13.33;8.97;;;;;;;1.76;78.28;101535.47;5022398;28;20026;-55
2022/04/04 03:39:44;;;;;;;14.77;9.10;;;;;;;1.80;78.13;101518.63;5019374;28;20029;-55
2022/04/04 03:42:09;;;;;;;12.17;9.20;;;;;;;1.83;78.34;101518.44;5018539;28;20082;-55
2022/04/04 03:44:34;;;;;;;13.87;9.90;;;;;;;1.85;78.18;101511.31;5024407;28;20017;-54
2022/04/04 03:47:00;;;;;;;14.90;9.77;;;;;;;1.92;78.39;101509.13;5018586;28;20036;-55
2022/04/04 03:49:25;;;;;;;13.00;9.17;;;;;;;1.95;78.29;101509.78;5020999;28;20547;-54
2022/04/04 03:51:51;;;;;;;14.10;8.93;;;;;;;1.98;78.22;101506.13;5016373;28;20053;-53
2022/04/04 03:54:16;;;;;;;14.77;9.43;;;;;;;2.04;78.17;101496.13;5021313;28;20100;-55
2022/04/04 03:56:41;;;;;;;14.03;9.23;;;;;;;2.07;78.07;101493.28;5014261;28;20026;-55
2022/04/04 03:59:06;;;;;;;13.43;9.33;;;;;;;2.10;77.86;101495.72;5016523;28;20056;-55
2022/04/04 04:01:42;;;;;;;15.13;9.00;;;;;;;2.16;77.74;101486.59;5021489;28;20026;-55
2022/04/04 04:04:13;;;;;;;18.10;9.33;;;;;;;2.19;77.63;101473.28;5023700;28;20047;-54
2022/04/04 04:06:38;;;;;;;16.10;8.40;;;;;;;2.24;77.51;101473.81;5015291;28;20029;-52
2022/04/04 04:09:04;;;;;;;13.23;9.03;;;;;;;2.28;77.44;101463.97;5022061;28;20022;-55
2022/04/04 04:11:29;;;;;;;14.27;9.13;;;;;;;2.31;77.20;101461.16;5019298;28;20029;-51
2022/04/04 04:13:54;;;;;;;14.33;9.13;;;;;;;2.34;77.28;101453.94;5018470;28;20456;-54
2022/04/04 04:16:20;;;;;;;13.50;9.40;;;;;;;2.36;77.16;101457.31;5017405;28;20029;-55
2022/04/04 04:18:45;;;;;;;15.27;9.87;;;;;;;2.41;77.16;101449.13;5022894;28;20022;-54
2022/04/04 04:21:12;;;;;;;19.13;10.07;;;;;;;2.45;76.98;101437.50;5024231;28;20060;-55
2022/04/04 04:23:39;;;;;;;12.80;9.37;;;;;;;2.48;77.06;101432.88;5017274;28;20053;-55
2022/04/04 04:26:06;;;;;;;14.03;9.63;;;;;;;2.51;76.78;101436.22;5018928;28;20025;-53
2022/04/04 04:28:32;;;;;;;14.40;9.73;;;;;;;2.54;76.67;101428.16;5018730;28;20569;-56
2022/04/04 04:30:58;;;;;;;14.47;9.50;;;;;;;2.55;76.46;101428.06;5018740;28;20052;-56
2022/04/04 04:33:24;;;;;;;13.50;9.23;;;;;;;2.62;76.47;101424.09;5018881;28;20545;-53
2022/04/04 04:35:50;;;;;;;14.37;9.43;;;;;;;2.65;76.26;101417.78;5019223;28;20025;-55
2022/04/04 04:38:15;;;;;;;14.40;9.83;;;;;;;2.64;76.39;101414.34;5024789;28;20032;-55
2022/04/04 04:40:40;;;;;;;15.47;9.37;;;;;;;2.65;76.25;101409.94;5021067;28;20033;-54
2022/04/04 04:43:06;;;;;;;16.03;10.23;;;;;;;2.66;76.13;101401.13;5023095;28;20027;-55
2022/04/04 04:45:31;;;;;;;15.10;9.77;;;;;;;2.69;76.22;101401.75;5023662;28;20401;-55
2022/04/04 04:47:57;;;;;;;15.03;9.63;;;;;;;2.68;76.02;101389.56;5025201;28;20083;-55
2022/04/04 04:50:23;;;;;;;15.17;10.20;;;;;;;2.74;76.11;101396.16;5018194;28;20414;-54
2022/04/04 04:52:49;;;;;;;14.97;10.13;;;;;;;2.74;75.96;101397.00;5015193;28;20030;-55
2022/04/04 04:55:16;;;;;;;16.73;9.93;;;;;;;2.78;75.95;101382.72;5014161;28;20061;-53
2022/04/04 04:57:43;;;;;;;15.37;10.47;;;;;;;2.83;75.75;101378.94;5015462;28;20034;-54
2022/04/04 05:00:11;;;;;;;16.87;10.37;;;;;;;2.86;75.97;101376.09;5020108;28;20029;-55
2022/04/04 05:02:37;;;;;;;17.57;10.00;;;;;;;2.87;75.92;101375.16;5023635;28;20026;-53
2022/04/04 05:05:04;;;;;;;14.63;10.10;;;;;;;2.89;75.75;101362.78;5021231;28;20035;-53
2022/04/04 05:07:29;;;;;;;14.17;10.07;;;;;;;2.91;75.73;101363.53;5017075;28;20033;-54
2022/04/04 05:09:55;;;;;;;17.23;9.83;;;;;;;2.92;75.86;101358.19;5019028;28;20036;-55
2022/04/04 05:12:20;;;;;;;13.07;9.83;;;;;;;2.93;75.50;101331.00;5017531;28;20435;-55
2022/04/04 05:14:45;;;;;;;14.07;9.90;;;;;;;3.02;75.37;101345.22;5010375;28;20036;-55
2022/04/04 05:17:10;;;;;;;14.53;10.33;;;;;;;3.06;75.40;101338.81;5017282;28;20368;-53
2022/04/04 05:19:36;;;;;;;18.97;10.67;;;;;;;3.10;75.17;101330.59;5017160;28;20233;-56
2022/04/04 05:22:01;;;;;;;13.70;9.70;;;;;;;3.16;75.35;101318.00;5016441;28;20040;-56
2022/04/04 05:24:29;;;;;;;15.60;10.77;;;;;;;3.19;75.27;101317.78;5019632;28;20026;-54
2022/04/04 05:26:56;;;;;;;16.13;10.47;;;;;;;3.21;75.17;101311.47;5023939;28;20037;-54
2022/04/04 05:29:23;;;;;;;14.27;10.77;;;;;;;3.26;75.08;101313.75;5021905;28;20370;-55
2022/04/04 05:31:49;;;;;;;15.67;9.90;;;;;;;3.29;75.09;101317.00;5022527;28;20040;-55
2022/04/04 05:34:14;;;;;;;15.73;10.40;;;;;;;3.31;75.07;101294.09;5020445;28;20018;-55
2022/04/04 05:36:39;;;;;;;15.53;10.03;;;;;;;3.35;74.83;101295.53;5014646;28;20118;-54
2022/04/04 05:39:05;;;;;;;15.10;10.20;;;;;;;3.39;74.95;101301.41;5019348;28;20025;-55
2022/04/04 05:41:31;;;;;;;12.33;9.93;;;;;;;3.43;74.80;101300.22;5025632;28;20056;-54
2022/04/04 05:43:57;;;;;;;15.80;10.43;;;;;;;3.47;74.57;101279.81;5027140;28;20279;-55
2022/04/04 05:46:23;;;;;;;15.37;9.43;;;;;;;3.50;74.61;101284.88;5021795;28;20596;-54
2022/04/04 05:48:48;;;;;;;16.83;10.53;;;;;;;3.52;74.57;101275.09;5026672;28;20217;-55
2022/04/04 05:51:15;;;;;;;17.53;10.57;;;;;;;3.42;74.56;101267.88;5017867;28;20066;-55
2022/04/04 05:53:40;;;;;;;15.57;10.33;;;;;;;3.54;74.82;101278.44;5011210;28;20112;-56
2022/04/04 05:56:06;;;;;;;18.57;10.33;;;;;;;3.56;74.52;101261.63;5018762;28;20151;-53
2022/04/04 05:58:32;;;;;;;14.20;10.30;;;;;;;3.61;74.56;101267.34;5015901;28;20028;-54
2022/04/04 06:00:58;;;;;;;16.27;10.63;;;;;;;3.66;74.18;101269.63;5014368;28;20452;-54
2022/04/04 06:03:23;;;;;;;13.53;9.93;;;;;;;3.71;74.08;101267.50;5017924;28;20026;-55
2022/04/04 06:05:50;;;;;;;13.97;9.70;;;;;;;3.76;73.87;101247.00;5013081;28;20087;-56
2022/04/04 06:08:16;;;;;;;17.77;10.17;;;;;;;3.82;73.70;101249.16;5015577;28;20371;-54
2022/04/04 06:10:43;;;;;;;13.43;10.00;;;;;;;3.86;73.37;101250.59;5022487;28;20056;-54
2022/04/04 06:13:09;;;;;;;12.70;9.87;;;;;;;3.89;73.31;101247.72;5024369;28;20052;-54
2022/04/04 06:15:34;;;;;;;15.70;10.33;;;;;;;3.92;73.16;101234.34;5023026;28;20443;-53
2022/04/04 06:18:00;;;;;;;14.60;9.80;;;;;;;3.95;72.82;101241.97;5020646;28;20132;-54
2022/04/04 06:20:25;;;;;;;13.67;10.40;;;;;;;4.03;72.72;101241.38;5020611;28;20087;-56
2022/04/04 06:22:51;;;;;;;13.97;10.30;;;;;;;4.04;72.63;101232.53;5023033;28;20112;-54
2022/04/04 06:25:16;;;;;;;14.80;10.03;;;;;;;4.01;72.42;101224.91;5027384;28;20025;-55
2022/04/04 06:27:41;;;;;;;12.80;10.03;;;;;;;3.99;72.22;101221.56;5027765;28;20033;-54
2022/04/04 06:30:08;;;;;;;13.50;9.97;;;;;;;3.96;72.32;101225.25;5020695;28;20029;-54
2022/04/04 06:32:33;;;;;;;13.47;10.37;;;;;;;3.97;72.46;101218.22;5029323;28;20025;-55
2022/04/04 06:34:59;;;;;;;12.83;10.37;;;;;;;3.96;72.25;101212.13;5030898;28;20021;-55
2022/04/04 06:37:24;;;;;;;15.30;10.00;;;;;;;3.96;72.23;101211.28;5030281;28;20044;-55
2022/04/04 06:39:50;;;;;;;13.30;9.90;;;;;;;3.97;72.34;101205.91;5022337;28;20104;-54
2022/04/04 06:42:15;;;;;;;14.93;10.23;;;;;;;4.00;72.06;101210.94;5021179;28;20030;-55
2022/04/04 06:44:42;;;;;;;17.97;11.03;;;;;;;4.00;72.11;101200.41;5029587;28;20044;-55
2022/04/04 06:47:08;;;;;;;14.63;10.47;;;;;;;4.01;72.20;101196.84;5023103;28;20041;-55
2022/04/04 06:49:33;;;;;;;17.63;10.53;;;;;;;4.04;72.01;101185.25;5016503;28;20029;-51
2022/04/04 06:51:58;;;;;;;14.80;9.90;;;;;;;4.07;71.88;101185.03;5030109;28;20037;-54
2022/04/04 06:54:23;;;;;;;13.97;10.37;;;;;;;4.11;71.76;101175.94;5021734;28;20167;-55
2022/04/04 06:56:49;;;;;;;12.03;10.03;;;;;;;4.17;71.42;101170.19;5023376;28;20029;-53
2022/04/04 06:59:17;;;;;;;14.10;10.03;;;;;;;4.22;71.44;101169.84;5019431;28;20100;-55
2022/04/04 07:01:43;;;;;;;12.93;9.47;;;;;;;4.23;71.24;101159.19;5024978;28;20104;-54
2022/04/04 07:04:10;;;;;;;12.00;9.43;;;;;;;4.32;71.27;101157.63;5030097;28;20116;-55
2022/04/04 07:06:35;;;;;;;12.33;9.30;;;;;;;4.37;71.05;101147.59;5017268;28;20109;-55
2022/04/04 07:09:01;;;;;;;14.23;9.50;;;;;;;4.40;70.67;101147.34;5023563;28;20022;-55
2022/04/04 07:11:27;;;;;;;13.30;9.80;;;;;;;4.44;70.59;101150.56;5017201;28;20501;-55
2022/04/04 07:13:52;;;;;;;12.50;9.47;;;;;;;4.45;70.49;101137.28;5025408;28;20021;-55
2022/04/04 07:16:18;;;;;;;14.80;10.07;;;;;;;4.43;70.52;101144.47;5029425;28;20040;-56
2022/04/04 07:18:43;;;;;;;13.43;10.20;;;;;;;4.45;71.02;101136.44;5023463;28;20087;-54
2022/04/04 07:21:08;;;;;;;13.90;10.33;;;;;;;4.47;70.80;101140.63;5020180;28;20027;-55
2022/04/04 07:23:34;;;;;;;12.57;9.67;;;;;;;4.49;71.06;101122.09;5021846;28;20022;-56
2022/04/04 07:26:00;;;;;;;15.47;10.43;;;;;;;4.44;71.29;101108.50;5019171;28;20026;-55
2022/04/04 07:28:25;;;;;;;15.07;10.43;;;;;;;4.45;71.40;101124.13;5024120;28;20031;-55
2022/04/04 07:30:52;;;;;;;15.67;10.53;;;;;;;4.50;71.51;101106.19;5025073;28;20540;-55
2022/04/04 07:33:18;;;;;;;13.03;10.47;;;;;;;4.50;71.74;101108.00;5023082;28;20148;-56
2022/04/04 07:35:45;;;;;;;15.97;10.93;;;;;;;4.53;71.96;101115.63;5015084;28;20065;-54
2022/04/04 07:38:11;;;;;;;14.87;10.67;;;;;;;4.51;71.94;101107.84;5025278;28;20025;-55
2022/04/04 07:40:37;;;;;;;14.13;10.40;;;;;;;4.54;72.09;101117.28;5029362;28;20100;-55
2022/04/04 07:43:02;;;;;;;13.97;10.90;;;;;;;4.58;72.14;101082.72;5021691;28;20124;-53
2022/04/04 07:45:29;;;;;;;14.83;10.43;;;;;;;4.66;71.79;101093.47;5026134;28;20083;-55
2022/04/04 07:47:56;;;;;;;15.50;10.27;;;;;;;4.77;71.66;101091.75;5025492;28;20503;-55
2022/04/04 07:50:21;;;;;;;14.83;10.67;;;;;;;4.84;71.60;101077.09;5017577;28;20025;-55
2022/04/04 07:52:47;;;;;;;17.83;10.57;;;;;;;4.92;71.52;101064.16;5025946;28;20033;-56
2022/04/04 07:55:12;;;;;;;16.73;10.60;;;;;;;4.99;71.63;101070.56;5030027;28;20020;-56
2022/04/04 07:57:38;;;;;;;14.03;10.37;;;;;;;5.07;71.27;101077.81;5018324;28;20033;-54
2022/04/04 08:00:05;;;;;;;14.63;10.37;;;;;;;5.13;71.08;101064.97;5023775;28;20045;-54
2022/04/04 08:02:30;;;;;;;14.03;10.23;;;;;;;5.21;70.69;101062.53;5024117;28;20022;-55
2022/04/04 08:04:56;;;;;;;15.47;10.30;;;;;;;5.27;71.03;101045.38;5027910;28;20167;-55
2022/04/04 08:07:22;;;;;;;15.67;9.73;;;;;;;5.34;70.76;101048.31;5029168;28;20024;-55
2022/04/04 08:09:48;;;;;;;13.07;9.77;;;;;;;5.42;70.17;101066.91;5027996;28;20029;-55
2022/04/04 08:12:13;;;;;;;14.87;9.67;;;;;;;5.47;70.04;101030.47;5028519;28;20079;-53
2022/04/04 08:14:39;;;;;;;15.50;9.40;;;;;;;5.54;69.65;101029.84;5028301;28;20503;-55
2022/04/04 08:17:05;;;;;;;12.97;9.47;;;;;;;5.60;69.12;101050.38;5028472;28;20400;-56
2022/04/04 08:19:30;;;;;;;9.37;8.37;;;;;;;5.69;68.82;101032.91;5027094;28;20087;-56
2022/04/04 08:21:56;;;;;;;15.83;9.37;;;;;;;5.75;68.36;101037.66;5028567;28;20025;-55
2022/04/04 08:24:22;;;;;;;14.70;9.57;;;;;;;5.80;68.18;101038.09;5023798;28;20028;-56
2022/04/04 08:26:48;;;;;;;14.13;9.70;;;;;;;5.82;68.28;101001.91;5026176;28;20025;-55
2022/04/04 08:29:13;;;;;;;12.67;8.93;;;;;;;5.90;67.64;101022.34;5020263;28;20051;-54
2022/04/04 08:31:39;;;;;;;13.80;9.23;;;;;;;5.94;67.57;100992.09;5026862;28;20033;-56
2022/04/04 08:34:05;;;;;;;13.63;9.43;;;;;;;6.01;67.69;101005.56;5024957;28;20037;-56
2022/04/04 08:36:30;;;;;;;11.27;9.30;;;;;;;6.06;67.83;100987.50;5024477;28;20473;-55
2022/04/04 08:38:56;;;;;;;13.63;9.60;;;;;;;6.03;67.52;100990.44;5026178;28;20026;-54
2022/04/04 08:41:22;;;;;;;15.10;9.87;;;;;;;6.02;67.49;100988.75;5026789;28;20026;-55
2022/04/04 08:43:49;;;;;;;11.33;9.27;;;;;;;5.99;67.13;101023.31;5028322;28;20261;-55
2022/04/04 08:46:15;;;;;;;11.87;9.00;;;;;;;5.93;67.22;100989.59;5028220;28;20080;-56
2022/04/04 08:48:41;;;;;;;13.13;8.80;;;;;;;5.91;67.38;100981.81;5022417;28;20033;-55
2022/04/04 08:51:07;;;;;;;12.87;9.47;;;;;;;5.93;67.67;100976.41;5027896;28;20109;-55
2022/04/04 08:53:37;;;;;;;14.30;9.87;;;;;;;5.89;67.90;100971.41;5028675;28;20532;-55
2022/04/04 08:56:04;;;;;;;13.07;9.13;;;;;;;5.84;68.36;100970.97;5027608;28;20054;-54
2022/04/04 08:58:30;;;;;;;17.97;10.57;;;;;;;5.73;68.51;100978.97;5013234;28;20040;-55
2022/04/04 09:00:55;;;;;;;13.83;10.07;;;;;;;5.68;68.76;100978.56;5027769;28;20400;-54
2022/04/04 09:03:22;;;;;;;18.27;11.07;;;;;;;5.54;69.49;101000.84;5020192;28;20513;-55
2022/04/04 09:05:58;;;;;;;17.27;10.00;;;;;;;5.39;70.30;100969.75;5028101;28;20033;-55
2022/04/04 09:08:24;;;;;;;14.90;10.70;;;;;;;5.41;70.75;100954.66;5016676;28;20069;-54
2022/04/04 09:10:56;;;;;;;15.07;11.20;;;;;;;5.49;71.21;100949.53;5027903;28;20040;-56
2022/04/04 09:13:24;;;;;;;15.93;11.30;;;;;;;5.44;71.50;100957.00;5026797;28;20030;-56
2022/04/04 09:16:04;;;;;;;16.47;11.20;;;;;;;5.38;71.97;100937.31;5027263;28;20033;-54
2022/04/04 09:18:35;;;;;;;16.63;12.60;;;;;;;5.26;72.59;100959.47;5026546;28;20033;-54
2022/04/04 09:21:00;;;;;;;17.87;12.07;;;;;;;5.02;73.72;100954.50;5027380;28;20029;-56
2022/04/04 09:23:33;;;;;;;16.07;11.80;;;;;;;5.03;73.90;100956.19;5022172;28;20040;-55
2022/04/04 09:26:00;;;;;;;15.03;12.13;;;;;;;5.05;74.54;100962.13;5027147;28;20032;-55
2022/04/04 09:28:25;;;;;;;18.23;13.63;;;;;;;5.03;74.89;100943.00;5026847;28;20025;-54
2022/04/04 09:31:06;;;;;;;18.80;13.73;;;;;;;4.92;75.83;100943.94;5014452;28;20666;-56
2022/04/04 09:33:40;;;;;;;17.70;13.23;;;;;;;4.91;76.27;100944.88;5025631;28;20036;-56
2022/04/04 09:36:06;;;;;;;22.67;14.50;;;;;;;4.77;77.35;100916.31;5027773;28;20026;-55
2022/04/04 09:38:34;;;;;;;19.90;14.90;;;;;;;4.74;78.21;100947.31;5027018;28;20109;-56
2022/04/04 09:41:05;;;;;;;17.90;14.60;;;;;;;4.65;78.54;100928.72;5026605;28;20068;-55
2022/04/04 09:44:00;;;;;;;21.70;15.03;;;;;;;4.62;79.13;100947.38;5027086;28;20037;-55
2022/04/04 09:46:39;;;;;;;24.53;16.63;;;;;;;4.57;80.19;100928.50;5027062;28;20049;-56
2022/04/04 09:49:16;;;;;;;19.75;15.10;;;;;;;4.54;80.58;100926.16;5026278;28;20064;-55
2022/04/04 09:51:51;;;;;;;19.13;14.87;;;;;;;4.56;80.58;100933.91;5027599;28;20105;-56
2022/04/04 09:54:28;;;;;;;22.13;15.53;;;;;;;4.54;81.53;100914.78;5025282;28;20021;-56
2022/04/04 09:57:13;;;;;;;19.40;13.53;;;;;;;4.56;81.99;100953.16;5026783;28;20507;-55
2022/04/04 09:59:39;;;;;;;22.07;15.70;;;;;;;4.51;82.44;100933.47;5026864;28;20373;-55
2022/04/04 10:02:05;;;;;;;19.53;14.53;;;;;;;4.51;82.71;100931.66;5022494;28;20021;-55
2022/04/04 10:04:34;;;;;;;22.03;16.97;;;;;;;4.49;83.23;100928.34;5022901;28;20032;-54
2022/04/04 10:07:05;;;;;;;20.38;16.25;;;;;;;4.46;83.89;100915.44;5028444;28;20108;-55
2022/04/04 10:09:30;;;;;;;20.73;16.07;;;;;;;4.46;83.96;100918.06;5030453;28;20041;-55
2022/04/04 10:11:57;;;;;;;22.63;15.73;;;;;;;4.46;83.88;100897.03;5030748;28;20367;-54
2022/04/04 10:14:23;;;;;;;24.03;16.60;;;;;;;4.45;84.66;100894.53;5024320;28;20021;-55
2022/04/04 10:16:50;;;;;;;25.17;17.97;;;;;;;4.50;85.06;100881.84;5029968;28;20025;-54
2022/04/04 10:19:17;;;;;;;22.37;16.57;;;;;;;4.49;85.39;100912.56;5017460;28;20226;-55
2022/04/04 10:21:42;;;;;;;21.20;17.70;;;;;;;4.55;85.22;100888.38;5030818;28;20025;-55
2022/04/04 10:24:11;;;;;;;23.60;18.20;;;;;;;4.54;85.95;100886.69;5030409;28;20516;-56
2022/04/04 10:26:37;;;;;;;26.43;18.17;;;;;;;4.53;86.33;100886.81;5030376;28;20424;-56
2022/04/04 10:29:16;;;;;;;23.67;18.63;;;;;;;4.54;86.83;100889.31;5029546;28;20022;-55
2022/04/04 10:31:53;;;;;;;26.05;19.50;;;;;;;4.57;87.38;100893.50;5030431;28;20033;-54
2022/04/04 10:34:21;;;;;;;29.90;20.00;;;;;;;4.55;87.85;100898.06;5030112;28;20396;-56
2022/04/04 10:37:07;;;;;;;28.37;20.80;;;;;;;4.54;88.03;100885.88;5028601;28;20049;-55
2022/04/04 10:39:44;;;;;;;25.70;21.47;;;;;;;4.50;88.84;100877.41;5024079;28;20024;-54
2022/04/04 10:42:46;;;;;;;26.80;21.00;;;;;;;4.49;89.11;100877.53;5020238;28;20033;-55
2022/04/04 10:45:13;;;;;;;28.63;21.60;;;;;;;4.50;89.42;100887.94;4997429;28;20036;-52
2022/04/04 10:47:42;;;;;;;30.17;23.30;;;;;;;4.53;90.09;100860.53;5024474;28;20487;-56
2022/04/04 10:50:20;;;;;;;26.75;21.98;;;;;;;4.52;90.34;100878.09;5021627;28;20028;-54
2022/04/04 10:52:46;;;;;;;27.87;21.87;;;;;;;4.51;90.69;100859.84;5024189;28;20036;-54
2022/04/04 10:55:30;;;;;;;30.40;23.00;;;;;;;4.54;90.90;100859.56;5022275;28;20381;-54
2022/04/04 10:58:22;;;;;;;32.27;25.03;;;;;;;4.51;91.51;100839.63;5012289;28;20162;-55
2022/04/04 11:00:55;;;;;;;30.73;25.40;;;;;;;4.54;91.94;100854.31;5024661;28;20037;-55
2022/04/04 11:03:32;;;;;;;36.73;26.10;;;;;;;4.58;92.36;100847.81;5028150;28;20512;-54
2022/04/04 11:09:12;;;;;;;28.73;24.80;;;;;;;4.53;92.48;100844.75;5010033;28;20045;-54
2022/04/04 11:12:00;;;;;;;26.87;23.07;;;;;;;4.54;92.67;100888.50;5024520;28;20543;-53
2022/04/04 11:14:28;;;;;;;27.10;21.40;;;;;;;4.56;92.66;100839.22;5022022;28;20348;-54
2022/04/04 11:17:05;;;;;;;34.93;26.30;;;;;;;4.59;93.42;100828.44;5024109;28;20030;-50
2022/04/04 11:19:49;;;;;;;31.57;24.23;;;;;;;4.55;93.63;100824.41;5023101;28;20025;-55
2022/04/04 11:22:17;;;;;;;29.27;23.53;;;;;;;4.56;93.60;100826.09;5027712;28;20029;-55
2022/04/04 11:24:48;;;;;;;27.87;22.60;;;;;;;4.53;93.81;100819.28;5024273;28;20033;-54
2022/04/04 11:27:13;;;;;;;32.00;25.23;;;;;;;4.54;94.04;100813.06;5038954;28;20033;-52